sensor_id;sensor_type;location;lat;lon;timestamp;P1;durP1;ratioP1;P2;durP2;ratioP2
12214;SDS011;6170;42.206;24.142;2022-09-20T00:00:11;0.90;;;0.65;;
12214;SDS011;6170;42.206;24.142;2022-09-20T00:02:39;0.70;;;0.70;;
12214;SDS011;6170;42.206;24.142;2022-09-20T00:05:06;0.40;;;0.40;;
12214;SDS011;6170;42.206;24.142;2022-09-20T00:07:33;1.35;;;0.73;;
12214;SDS011;6170;42.206;24.142;2022-09-20T00:10:01;0.93;;;0.73;;
12214;SDS011;6170;42.206;24.142;2022-09-20T00:12:28;1.20;;;0.90;;
12214;SDS011;6170;42.206;24.142;2022-09-20T00:14:55;1.48;;;0.70;;
12214;SDS011;6170;42.206;24.142;2022-09-20T00:17:22;4.65;;;0.80;;
12214;SDS011;6170;42.206;24.142;2022-09-20T00:19:49;0.77;;;0.70;;
12214;SDS011;6170;42.206;24.142;2022-09-20T00:22:16;0.70;;;0.70;;
12214;SDS011;6170;42.206;24.142;2022-09-20T00:24:42;1.02;;;0.77;;
12214;SDS011;6170;42.206;24.142;2022-09-20T00:27:11;0.70;;;0.70;;
12214;SDS011;6170;42.206;24.142;2022-09-20T00:29:37;0.57;;;0.47;;
12214;SDS011;6170;42.206;24.142;2022-09-20T00:32:04;0.70;;;0.55;;
12214;SDS011;6170;42.206;24.142;2022-09-20T00:34:31;1.42;;;0.70;;
12214;SDS011;6170;42.206;24.142;2022-09-20T00:37:15;0.60;;;0.60;;
12214;SDS011;6170;42.206;24.142;2022-09-20T00:39:42;0.63;;;0.60;;
12214;SDS011;6170;42.206;24.142;2022-09-20T00:42:11;1.50;;;0.77;;
12214;SDS011;6170;42.206;24.142;2022-09-20T00:44:41;1.65;;;0.82;;
12214;SDS011;6170;42.206;24.142;2022-09-20T00:47:14;0.50;;;0.50;;
12214;SDS011;6170;42.206;24.142;2022-09-20T00:49:46;0.70;;;0.50;;
12214;SDS011;6170;42.206;24.142;2022-09-20T00:52:15;1.25;;;0.60;;
12214;SDS011;6170;42.206;24.142;2022-09-20T00:54:43;0.57;;;0.57;;
12214;SDS011;6170;42.206;24.142;2022-09-20T00:57:11;1.55;;;0.60;;
12214;SDS011;6170;42.206;24.142;2022-09-20T00:59:38;0.40;;;0.40;;
12214;SDS011;6170;42.206;24.142;2022-09-20T01:02:11;1.20;;;0.75;;
12214;SDS011;6170;42.206;24.142;2022-09-20T01:04:42;0.50;;;0.50;;
12214;SDS011;6170;42.206;24.142;2022-09-20T01:07:10;0.82;;;0.70;;
12214;SDS011;6170;42.206;24.142;2022-09-20T01:09:40;0.55;;;0.50;;
12214;SDS011;6170;42.206;24.142;2022-09-20T01:12:08;1.17;;;0.68;;
12214;SDS011;6170;42.206;24.142;2022-09-20T01:14:40;1.33;;;0.80;;
12214;SDS011;6170;42.206;24.142;2022-09-20T01:17:10;0.63;;;0.60;;
12214;SDS011;6170;42.206;24.142;2022-09-20T01:19:40;0.85;;;0.73;;
12214;SDS011;6170;42.206;24.142;2022-09-20T01:22:12;0.85;;;0.70;;
12214;SDS011;6170;42.206;24.142;2022-09-20T01:24:46;1.05;;;0.73;;
12214;SDS011;6170;42.206;24.142;2022-09-20T01:27:21;0.80;;;0.80;;
12214;SDS011;6170;42.206;24.142;2022-09-20T01:29:57;0.95;;;0.77;;
12214;SDS011;6170;42.206;24.142;2022-09-20T01:32:33;0.50;;;0.50;;
12214;SDS011;6170;42.206;24.142;2022-09-20T01:35:07;1.30;;;0.82;;
12214;SDS011;6170;42.206;24.142;2022-09-20T01:37:38;0.73;;;0.68;;
12214;SDS011;6170;42.206;24.142;2022-09-20T01:40:17;1.05;;;0.95;;
12214;SDS011;6170;42.206;24.142;2022-09-20T01:42:55;0.98;;;0.80;;
12214;SDS011;6170;42.206;24.142;2022-09-20T01:45:29;0.68;;;0.68;;
12214;SDS011;6170;42.206;24.142;2022-09-20T01:48:00;1.00;;;0.70;;
12214;SDS011;6170;42.206;24.142;2022-09-20T01:50:35;0.95;;;0.85;;
12214;SDS011;6170;42.206;24.142;2022-09-20T01:53:30;1.00;;;0.88;;
12214;SDS011;6170;42.206;24.142;2022-09-20T02:02:49;1.90;;;1.20;;
12214;SDS011;6170;42.206;24.142;2022-09-20T02:11:44;1.90;;;0.90;;
12214;SDS011;6170;42.206;24.142;2022-09-20T02:14:28;1.10;;;1.00;;
12214;SDS011;6170;42.206;24.142;2022-09-20T02:17:02;1.98;;;1.15;;
12214;SDS011;6170;42.206;24.142;2022-09-20T02:19:48;1.90;;;1.70;;
12214;SDS011;6170;42.206;24.142;2022-09-20T02:25:25;1.60;;;1.50;;
12214;SDS011;6170;42.206;24.142;2022-09-20T02:28:07;4.40;;;1.80;;
12214;SDS011;6170;42.206;24.142;2022-09-20T02:30:49;1.80;;;1.70;;
12214;SDS011;6170;42.206;24.142;2022-09-20T02:33:24;1.90;;;1.73;;
12214;SDS011;6170;42.206;24.142;2022-09-20T02:36:09;1.85;;;1.60;;
12214;SDS011;6170;42.206;24.142;2022-09-20T02:38:49;2.25;;;1.90;;
12214;SDS011;6170;42.206;24.142;2022-09-20T02:41:36;1.73;;;1.63;;
12214;SDS011;6170;42.206;24.142;2022-09-20T02:44:14;1.85;;;1.70;;
12214;SDS011;6170;42.206;24.142;2022-09-20T02:46:50;2.42;;;2.00;;
12214;SDS011;6170;42.206;24.142;2022-09-20T02:49:22;2.30;;;1.73;;
12214;SDS011;6170;42.206;24.142;2022-09-20T02:51:59;3.72;;;1.85;;
12214;SDS011;6170;42.206;24.142;2022-09-20T02:54:36;2.40;;;1.90;;
12214;SDS011;6170;42.206;24.142;2022-09-20T02:57:13;3.05;;;1.70;;
12214;SDS011;6170;42.206;24.142;2022-09-20T02:59:48;2.42;;;2.10;;
12214;SDS011;6170;42.206;24.142;2022-09-20T03:02:21;2.45;;;2.03;;
12214;SDS011;6170;42.206;24.142;2022-09-20T03:05:00;3.50;;;1.97;;
12214;SDS011;6170;42.206;24.142;2022-09-20T03:07:40;3.15;;;2.05;;
12214;SDS011;6170;42.206;24.142;2022-09-20T03:10:14;9.50;;;2.13;;
12214;SDS011;6170;42.206;24.142;2022-09-20T03:12:52;2.28;;;2.08;;
12214;SDS011;6170;42.206;24.142;2022-09-20T03:15:30;3.47;;;1.92;;
12214;SDS011;6170;42.206;24.142;2022-09-20T03:18:06;2.58;;;2.20;;
12214;SDS011;6170;42.206;24.142;2022-09-20T03:20:39;3.40;;;1.80;;
12214;SDS011;6170;42.206;24.142;2022-09-20T03:23:17;2.05;;;1.77;;
12214;SDS011;6170;42.206;24.142;2022-09-20T03:26:02;4.43;;;1.85;;
12214;SDS011;6170;42.206;24.142;2022-09-20T03:28:44;1.80;;;1.58;;
12214;SDS011;6170;42.206;24.142;2022-09-20T03:31:23;2.03;;;1.73;;
12214;SDS011;6170;42.206;24.142;2022-09-20T03:34:01;2.20;;;2.00;;
12214;SDS011;6170;42.206;24.142;2022-09-20T03:36:49;2.13;;;1.90;;
12214;SDS011;6170;42.206;24.142;2022-09-20T03:39:35;1.80;;;1.65;;
12214;SDS011;6170;42.206;24.142;2022-09-20T03:42:21;2.47;;;1.77;;
12214;SDS011;6170;42.206;24.142;2022-09-20T03:45:12;3.25;;;2.10;;
12214;SDS011;6170;42.206;24.142;2022-09-20T03:48:11;2.42;;;2.10;;
12214;SDS011;6170;42.206;24.142;2022-09-20T03:50:50;7.93;;;2.00;;
12214;SDS011;6170;42.206;24.142;2022-09-20T03:53:38;2.30;;;2.00;;
12214;SDS011;6170;42.206;24.142;2022-09-20T03:56:35;2.20;;;1.70;;
12214;SDS011;6170;42.206;24.142;2022-09-20T03:59:26;2.40;;;1.88;;
12214;SDS011;6170;42.206;24.142;2022-09-20T04:02:19;1.90;;;1.70;;
12214;SDS011;6170;42.206;24.142;2022-09-20T04:04:59;2.05;;;1.85;;
12214;SDS011;6170;42.206;24.142;2022-09-20T04:07:30;2.10;;;1.90;;
12214;SDS011;6170;42.206;24.142;2022-09-20T04:10:15;2.10;;;1.90;;
12214;SDS011;6170;42.206;24.142;2022-09-20T04:15:56;2.95;;;2.15;;
12214;SDS011;6170;42.206;24.142;2022-09-20T04:18:32;6.03;;;1.95;;
12214;SDS011;6170;42.206;24.142;2022-09-20T04:21:04;2.40;;;2.20;;
12214;SDS011;6170;42.206;24.142;2022-09-20T04:23:39;2.50;;;2.00;;
12214;SDS011;6170;42.206;24.142;2022-09-20T04:26:14;2.38;;;2.17;;
12214;SDS011;6170;42.206;24.142;2022-09-20T04:28:46;3.25;;;2.10;;
12214;SDS011;6170;42.206;24.142;2022-09-20T04:31:22;2.50;;;2.20;;
12214;SDS011;6170;42.206;24.142;2022-09-20T04:33:58;2.03;;;1.80;;
12214;SDS011;6170;42.206;24.142;2022-09-20T04:39:23;2.90;;;2.42;;
12214;SDS011;6170;42.206;24.142;2022-09-20T04:42:14;2.95;;;2.20;;
12214;SDS011;6170;42.206;24.142;2022-09-20T04:45:14;3.95;;;1.75;;
12214;SDS011;6170;42.206;24.142;2022-09-20T04:48:23;2.10;;;1.90;;
12214;SDS011;6170;42.206;24.142;2022-09-20T04:57:28;2.72;;;1.90;;
12214;SDS011;6170;42.206;24.142;2022-09-20T05:00:12;5.75;;;2.92;;
12214;SDS011;6170;42.206;24.142;2022-09-20T05:11:44;5.72;;;2.40;;
12214;SDS011;6170;42.206;24.142;2022-09-20T05:14:47;2.67;;;2.20;;
12214;SDS011;6170;42.206;24.142;2022-09-20T05:17:37;11.20;;;2.30;;
12214;SDS011;6170;42.206;24.142;2022-09-20T05:20:25;4.70;;;1.92;;
12214;SDS011;6170;42.206;24.142;2022-09-20T05:23:24;3.65;;;1.92;;
12214;SDS011;6170;42.206;24.142;2022-09-20T05:26:07;3.10;;;1.83;;
12214;SDS011;6170;42.206;24.142;2022-09-20T05:28:43;2.53;;;2.10;;
12214;SDS011;6170;42.206;24.142;2022-09-20T05:31:19;2.17;;;1.90;;
12214;SDS011;6170;42.206;24.142;2022-09-20T05:33:55;1.80;;;1.60;;
12214;SDS011;6170;42.206;24.142;2022-09-20T05:36:33;5.43;;;1.80;;
12214;SDS011;6170;42.206;24.142;2022-09-20T05:39:11;1.63;;;1.52;;
12214;SDS011;6170;42.206;24.142;2022-09-20T05:41:51;4.40;;;1.55;;
12214;SDS011;6170;42.206;24.142;2022-09-20T05:44:24;1.90;;;1.70;;
12214;SDS011;6170;42.206;24.142;2022-09-20T05:46:57;5.80;;;1.90;;
12214;SDS011;6170;42.206;24.142;2022-09-20T05:49:40;7.13;;;2.22;;
12214;SDS011;6170;42.206;24.142;2022-09-20T05:52:24;2.38;;;2.05;;
12214;SDS011;6170;42.206;24.142;2022-09-20T05:55:13;2.53;;;1.98;;
12214;SDS011;6170;42.206;24.142;2022-09-20T05:57:58;2.08;;;1.88;;
12214;SDS011;6170;42.206;24.142;2022-09-20T06:00:34;1.60;;;1.50;;
12214;SDS011;6170;42.206;24.142;2022-09-20T06:03:09;2.60;;;1.90;;
12214;SDS011;6170;42.206;24.142;2022-09-20T06:05:48;3.63;;;1.55;;
12214;SDS011;6170;42.206;24.142;2022-09-20T06:08:29;2.05;;;1.65;;
12214;SDS011;6170;42.206;24.142;2022-09-20T06:11:17;3.20;;;1.80;;
12214;SDS011;6170;42.206;24.142;2022-09-20T06:13:56;1.90;;;1.70;;
12214;SDS011;6170;42.206;24.142;2022-09-20T06:16:36;3.25;;;1.83;;
12214;SDS011;6170;42.206;24.142;2022-09-20T06:19:11;2.58;;;1.77;;
12214;SDS011;6170;42.206;24.142;2022-09-20T06:21:47;6.63;;;1.95;;
12214;SDS011;6170;42.206;24.142;2022-09-20T06:24:20;4.90;;;2.30;;
12214;SDS011;6170;42.206;24.142;2022-09-20T06:26:53;3.33;;;2.10;;
12214;SDS011;6170;42.206;24.142;2022-09-20T06:29:26;2.20;;;1.98;;
12214;SDS011;6170;42.206;24.142;2022-09-20T06:31:56;4.20;;;1.88;;
12214;SDS011;6170;42.206;24.142;2022-09-20T06:34:23;2.58;;;2.10;;
12214;SDS011;6170;42.206;24.142;2022-09-20T06:36:55;2.88;;;2.13;;
12214;SDS011;6170;42.206;24.142;2022-09-20T06:39:50;2.55;;;1.80;;
12214;SDS011;6170;42.206;24.142;2022-09-20T06:42:41;2.20;;;2.00;;
12214;SDS011;6170;42.206;24.142;2022-09-20T06:45:08;1.70;;;1.60;;
12214;SDS011;6170;42.206;24.142;2022-09-20T06:47:35;1.67;;;1.58;;
12214;SDS011;6170;42.206;24.142;2022-09-20T06:50:02;2.28;;;1.77;;
12214;SDS011;6170;42.206;24.142;2022-09-20T06:52:32;2.00;;;1.80;;
12214;SDS011;6170;42.206;24.142;2022-09-20T06:54:59;3.65;;;1.73;;
12214;SDS011;6170;42.206;24.142;2022-09-20T06:57:32;3.35;;;2.88;;
12214;SDS011;6170;42.206;24.142;2022-09-20T07:00:02;2.47;;;1.85;;
12214;SDS011;6170;42.206;24.142;2022-09-20T07:02:30;4.57;;;2.90;;
12214;SDS011;6170;42.206;24.142;2022-09-20T07:04:57;10.65;;;5.07;;
12214;SDS011;6170;42.206;24.142;2022-09-20T07:07:23;4.38;;;1.73;;
12214;SDS011;6170;42.206;24.142;2022-09-20T07:09:52;1.52;;;1.40;;
12214;SDS011;6170;42.206;24.142;2022-09-20T07:12:18;1.33;;;1.23;;
12214;SDS011;6170;42.206;24.142;2022-09-20T07:14:45;2.55;;;1.35;;
12214;SDS011;6170;42.206;24.142;2022-09-20T07:17:12;2.00;;;1.33;;
12214;SDS011;6170;42.206;24.142;2022-09-20T07:19:39;3.25;;;1.67;;
12214;SDS011;6170;42.206;24.142;2022-09-20T07:22:05;2.40;;;1.75;;
12214;SDS011;6170;42.206;24.142;2022-09-20T07:24:32;3.22;;;1.67;;
12214;SDS011;6170;42.206;24.142;2022-09-20T07:27:01;1.65;;;1.40;;
12214;SDS011;6170;42.206;24.142;2022-09-20T07:29:29;1.65;;;1.38;;
12214;SDS011;6170;42.206;24.142;2022-09-20T07:31:56;2.95;;;1.58;;
12214;SDS011;6170;42.206;24.142;2022-09-20T07:34:23;1.67;;;1.48;;
12214;SDS011;6170;42.206;24.142;2022-09-20T07:36:51;4.00;;;1.40;;
12214;SDS011;6170;42.206;24.142;2022-09-20T07:39:18;3.20;;;1.30;;
12214;SDS011;6170;42.206;24.142;2022-09-20T07:41:44;2.45;;;1.60;;
12214;SDS011;6170;42.206;24.142;2022-09-20T07:44:14;2.67;;;1.30;;
12214;SDS011;6170;42.206;24.142;2022-09-20T07:46:48;1.50;;;1.33;;
12214;SDS011;6170;42.206;24.142;2022-09-20T07:49:16;1.20;;;1.10;;
12214;SDS011;6170;42.206;24.142;2022-09-20T07:51:44;6.47;;;3.50;;
12214;SDS011;6170;42.206;24.142;2022-09-20T07:54:11;4.10;;;2.53;;
12214;SDS011;6170;42.206;24.142;2022-09-20T07:56:37;7.38;;;4.68;;
12214;SDS011;6170;42.206;24.142;2022-09-20T07:59:04;3.50;;;3.20;;
12214;SDS011;6170;42.206;24.142;2022-09-20T08:01:32;5.57;;;2.00;;
12214;SDS011;6170;42.206;24.142;2022-09-20T08:03:59;13.07;;;6.80;;
12214;SDS011;6170;42.206;24.142;2022-09-20T08:06:26;6.72;;;4.63;;
12214;SDS011;6170;42.206;24.142;2022-09-20T08:08:54;14.88;;;9.73;;
12214;SDS011;6170;42.206;24.142;2022-09-20T08:11:21;2.42;;;2.20;;
12214;SDS011;6170;42.206;24.142;2022-09-20T08:13:50;2.60;;;1.85;;
12214;SDS011;6170;42.206;24.142;2022-09-20T08:16:19;2.45;;;1.85;;
12214;SDS011;6170;42.206;24.142;2022-09-20T08:18:48;2.13;;;1.42;;
12214;SDS011;6170;42.206;24.142;2022-09-20T08:21:16;2.65;;;2.03;;
12214;SDS011;6170;42.206;24.142;2022-09-20T08:23:44;1.23;;;1.13;;
12214;SDS011;6170;42.206;24.142;2022-09-20T08:26:13;0.95;;;0.95;;
12214;SDS011;6170;42.206;24.142;2022-09-20T08:28:42;1.92;;;0.90;;
12214;SDS011;6170;42.206;24.142;2022-09-20T08:31:10;1.23;;;1.00;;
12214;SDS011;6170;42.206;24.142;2022-09-20T08:33:38;1.20;;;1.10;;
12214;SDS011;6170;42.206;24.142;2022-09-20T08:36:07;1.48;;;0.82;;
12214;SDS011;6170;42.206;24.142;2022-09-20T08:38:37;2.53;;;0.97;;
12214;SDS011;6170;42.206;24.142;2022-09-20T08:41:04;11.52;;;4.50;;
12214;SDS011;6170;42.206;24.142;2022-09-20T08:43:37;5.07;;;3.50;;
12214;SDS011;6170;42.206;24.142;2022-09-20T08:46:09;1.13;;;1.00;;
12214;SDS011;6170;42.206;24.142;2022-09-20T08:48:40;1.27;;;0.90;;
12214;SDS011;6170;42.206;24.142;2022-09-20T08:51:09;3.60;;;1.10;;
12214;SDS011;6170;42.206;24.142;2022-09-20T08:53:40;0.88;;;0.88;;
12214;SDS011;6170;42.206;24.142;2022-09-20T08:58:38;1.15;;;1.05;;
12214;SDS011;6170;42.206;24.142;2022-09-20T09:01:06;3.38;;;1.08;;
12214;SDS011;6170;42.206;24.142;2022-09-20T09:03:33;3.78;;;0.80;;
12214;SDS011;6170;42.206;24.142;2022-09-20T09:06:00;3.20;;;0.73;;
12214;SDS011;6170;42.206;24.142;2022-09-20T09:08:29;2.05;;;0.95;;
12214;SDS011;6170;42.206;24.142;2022-09-20T09:11:01;1.38;;;0.82;;
12214;SDS011;6170;42.206;24.142;2022-09-20T09:13:35;0.65;;;0.60;;
12214;SDS011;6170;42.206;24.142;2022-09-20T09:16:07;4.18;;;0.82;;
12214;SDS011;6170;42.206;24.142;2022-09-20T09:18:38;1.08;;;0.98;;
12214;SDS011;6170;42.206;24.142;2022-09-20T09:21:06;4.22;;;1.40;;
12214;SDS011;6170;42.206;24.142;2022-09-20T09:23:39;2.22;;;0.90;;
12214;SDS011;6170;42.206;24.142;2022-09-20T09:26:15;0.75;;;0.75;;
12214;SDS011;6170;42.206;24.142;2022-09-20T09:28:45;2.33;;;0.82;;
12214;SDS011;6170;42.206;24.142;2022-09-20T09:31:13;0.52;;;0.52;;
12214;SDS011;6170;42.206;24.142;2022-09-20T09:33:49;1.05;;;0.90;;
12214;SDS011;6170;42.206;24.142;2022-09-20T09:36:19;0.70;;;0.70;;
12214;SDS011;6170;42.206;24.142;2022-09-20T09:38:49;1.52;;;0.80;;
12214;SDS011;6170;42.206;24.142;2022-09-20T09:41:20;16.98;;;2.50;;
12214;SDS011;6170;42.206;24.142;2022-09-20T09:43:57;18.13;;;2.33;;
12214;SDS011;6170;42.206;24.142;2022-09-20T09:46:26;4.22;;;0.93;;
12214;SDS011;6170;42.206;24.142;2022-09-20T09:49:04;0.95;;;0.80;;
12214;SDS011;6170;42.206;24.142;2022-09-20T09:51:33;1.50;;;0.80;;
12214;SDS011;6170;42.206;24.142;2022-09-20T09:54:02;2.63;;;1.10;;
12214;SDS011;6170;42.206;24.142;2022-09-20T10:02:23;0.80;;;0.80;;
12214;SDS011;6170;42.206;24.142;2022-09-20T10:05:04;1.20;;;0.85;;
12214;SDS011;6170;42.206;24.142;2022-09-20T10:07:43;0.98;;;0.90;;
12214;SDS011;6170;42.206;24.142;2022-09-20T10:10:20;3.10;;;0.85;;
12214;SDS011;6170;42.206;24.142;2022-09-20T10:12:56;1.15;;;0.80;;
12214;SDS011;6170;42.206;24.142;2022-09-20T10:15:37;0.70;;;0.70;;
12214;SDS011;6170;42.206;24.142;2022-09-20T10:18:16;3.65;;;0.80;;
12214;SDS011;6170;42.206;24.142;2022-09-20T10:21:07;0.68;;;0.68;;
12214;SDS011;6170;42.206;24.142;2022-09-20T10:23:57;0.98;;;0.90;;
12214;SDS011;6170;42.206;24.142;2022-09-20T10:29:27;0.80;;;0.80;;
12214;SDS011;6170;42.206;24.142;2022-09-20T10:32:06;0.88;;;0.85;;
12214;SDS011;6170;42.206;24.142;2022-09-20T10:34:47;1.45;;;1.30;;
12214;SDS011;6170;42.206;24.142;2022-09-20T10:37:27;1.10;;;1.00;;
12214;SDS011;6170;42.206;24.142;2022-09-20T10:40:04;2.33;;;0.90;;
12214;SDS011;6170;42.206;24.142;2022-09-20T10:42:44;1.35;;;1.00;;
12214;SDS011;6170;42.206;24.142;2022-09-20T10:45:33;0.80;;;0.80;;
12214;SDS011;6170;42.206;24.142;2022-09-20T10:48:04;1.70;;;0.80;;
12214;SDS011;6170;42.206;24.142;2022-09-20T10:50:39;0.80;;;0.80;;
12214;SDS011;6170;42.206;24.142;2022-09-20T10:53:20;0.80;;;0.80;;
12214;SDS011;6170;42.206;24.142;2022-09-20T10:55:58;2.60;;;0.88;;
12214;SDS011;6170;42.206;24.142;2022-09-20T10:58:43;0.80;;;0.80;;
12214;SDS011;6170;42.206;24.142;2022-09-20T11:01:21;2.85;;;1.05;;
12214;SDS011;6170;42.206;24.142;2022-09-20T11:03:56;0.88;;;0.80;;
12214;SDS011;6170;42.206;24.142;2022-09-20T11:06:42;0.90;;;0.90;;
12214;SDS011;6170;42.206;24.142;2022-09-20T11:09:18;1.05;;;0.95;;
12214;SDS011;6170;42.206;24.142;2022-09-20T11:11:49;0.85;;;0.85;;
12214;SDS011;6170;42.206;24.142;2022-09-20T11:14:22;2.00;;;1.05;;
12214;SDS011;6170;42.206;24.142;2022-09-20T11:16:58;1.92;;;0.93;;
12214;SDS011;6170;42.206;24.142;2022-09-20T11:19:33;0.77;;;0.77;;
12214;SDS011;6170;42.206;24.142;2022-09-20T11:22:09;1.95;;;0.80;;
12214;SDS011;6170;42.206;24.142;2022-09-20T11:24:44;1.17;;;0.88;;
12214;SDS011;6170;42.206;24.142;2022-09-20T11:27:16;0.93;;;0.85;;
12214;SDS011;6170;42.206;24.142;2022-09-20T11:29:51;1.17;;;0.90;;
12214;SDS011;6170;42.206;24.142;2022-09-20T11:32:23;2.42;;;1.10;;
12214;SDS011;6170;42.206;24.142;2022-09-20T11:34:53;2.33;;;0.90;;
12214;SDS011;6170;42.206;24.142;2022-09-20T11:37:24;1.77;;;0.90;;
12214;SDS011;6170;42.206;24.142;2022-09-20T11:39:58;6.63;;;1.65;;
12214;SDS011;6170;42.206;24.142;2022-09-20T11:42:28;2.40;;;1.20;;
12214;SDS011;6170;42.206;24.142;2022-09-20T11:47:29;0.90;;;0.90;;
12214;SDS011;6170;42.206;24.142;2022-09-20T11:50:06;1.13;;;1.00;;
12214;SDS011;6170;42.206;24.142;2022-09-20T11:53:04;1.40;;;1.00;;
12214;SDS011;6170;42.206;24.142;2022-09-20T11:55:41;1.35;;;0.80;;
12214;SDS011;6170;42.206;24.142;2022-09-20T11:58:15;1.20;;;0.90;;
12214;SDS011;6170;42.206;24.142;2022-09-20T12:00:48;2.08;;;1.00;;
12214;SDS011;6170;42.206;24.142;2022-09-20T12:05:55;1.08;;;0.90;;
12214;SDS011;6170;42.206;24.142;2022-09-20T12:08:24;0.80;;;0.80;;
12214;SDS011;6170;42.206;24.142;2022-09-20T12:10:56;2.27;;;0.90;;
12214;SDS011;6170;42.206;24.142;2022-09-20T12:13:25;2.05;;;1.10;;
12214;SDS011;6170;42.206;24.142;2022-09-20T12:16:02;1.60;;;1.10;;
12214;SDS011;6170;42.206;24.142;2022-09-20T12:18:35;2.05;;;1.50;;
12214;SDS011;6170;42.206;24.142;2022-09-20T12:21:13;2.38;;;1.00;;
12214;SDS011;6170;42.206;24.142;2022-09-20T12:26:43;0.80;;;0.80;;
12214;SDS011;6170;42.206;24.142;2022-09-20T12:32:38;1.17;;;0.90;;
12214;SDS011;6170;42.206;24.142;2022-09-20T12:41:14;2.15;;;0.98;;
12214;SDS011;6170;42.206;24.142;2022-09-20T12:43:48;2.92;;;2.40;;
12214;SDS011;6170;42.206;24.142;2022-09-20T12:46:34;6.75;;;1.13;;
12214;SDS011;6170;42.206;24.142;2022-09-20T12:49:19;0.80;;;0.80;;
12214;SDS011;6170;42.206;24.142;2022-09-20T12:52:19;6.85;;;0.80;;
12214;SDS011;6170;42.206;24.142;2022-09-20T12:55:30;0.82;;;0.82;;
12214;SDS011;6170;42.206;24.142;2022-09-20T12:58:03;1.40;;;0.88;;
12214;SDS011;6170;42.206;24.142;2022-09-20T13:00:33;1.52;;;1.00;;
12214;SDS011;6170;42.206;24.142;2022-09-20T13:03:09;1.42;;;0.85;;
12214;SDS011;6170;42.206;24.142;2022-09-20T13:05:40;2.05;;;0.70;;
12214;SDS011;6170;42.206;24.142;2022-09-20T13:08:14;1.00;;;0.90;;
12214;SDS011;6170;42.206;24.142;2022-09-20T13:10:46;0.80;;;0.80;;
12214;SDS011;6170;42.206;24.142;2022-09-20T13:16:02;1.23;;;0.90;;
12214;SDS011;6170;42.206;24.142;2022-09-20T13:18:33;1.08;;;0.90;;
12214;SDS011;6170;42.206;24.142;2022-09-20T13:21:03;2.80;;;0.90;;
12214;SDS011;6170;42.206;24.142;2022-09-20T13:23:35;1.98;;;1.75;;
12214;SDS011;6170;42.206;24.142;2022-09-20T13:26:11;1.02;;;0.80;;
12214;SDS011;6170;42.206;24.142;2022-09-20T13:28:43;1.98;;;0.70;;
12214;SDS011;6170;42.206;24.142;2022-09-20T13:36:56;13.65;;;3.65;;
12214;SDS011;6170;42.206;24.142;2022-09-20T13:39:25;11.27;;;5.90;;
12214;SDS011;6170;42.206;24.142;2022-09-20T13:41:57;7.35;;;3.70;;
12214;SDS011;6170;42.206;24.142;2022-09-20T13:44:28;6.75;;;4.10;;
12214;SDS011;6170;42.206;24.142;2022-09-20T13:46:57;12.65;;;6.90;;
12214;SDS011;6170;42.206;24.142;2022-09-20T13:49:24;4.68;;;1.98;;
12214;SDS011;6170;42.206;24.142;2022-09-20T13:51:57;5.75;;;2.67;;
12214;SDS011;6170;42.206;24.142;2022-09-20T13:54:26;6.63;;;2.97;;
12214;SDS011;6170;42.206;24.142;2022-09-20T13:56:54;5.72;;;3.60;;
12214;SDS011;6170;42.206;24.142;2022-09-20T13:59:24;0.70;;;0.70;;
12214;SDS011;6170;42.206;24.142;2022-09-20T14:01:55;0.95;;;0.70;;
12214;SDS011;6170;42.206;24.142;2022-09-20T14:04:23;2.35;;;0.73;;
12214;SDS011;6170;42.206;24.142;2022-09-20T14:06:51;0.80;;;0.80;;
12214;SDS011;6170;42.206;24.142;2022-09-20T14:09:22;1.10;;;1.00;;
12214;SDS011;6170;42.206;24.142;2022-09-20T14:11:53;2.85;;;1.00;;
12214;SDS011;6170;42.206;24.142;2022-09-20T14:14:22;2.53;;;1.00;;
12214;SDS011;6170;42.206;24.142;2022-09-20T14:16:50;1.00;;;0.88;;
12214;SDS011;6170;42.206;24.142;2022-09-20T14:19:20;2.15;;;1.15;;
12214;SDS011;6170;42.206;24.142;2022-09-20T14:21:54;1.20;;;0.80;;
12214;SDS011;6170;42.206;24.142;2022-09-20T14:24:25;3.90;;;1.15;;
12214;SDS011;6170;42.206;24.142;2022-09-20T14:26:59;1.27;;;0.75;;
12214;SDS011;6170;42.206;24.142;2022-09-20T14:32:03;4.05;;;1.20;;
12214;SDS011;6170;42.206;24.142;2022-09-20T14:34:35;1.40;;;1.05;;
12214;SDS011;6170;42.206;24.142;2022-09-20T14:37:04;3.22;;;1.15;;
12214;SDS011;6170;42.206;24.142;2022-09-20T14:39:45;1.20;;;1.10;;
12214;SDS011;6170;42.206;24.142;2022-09-20T14:42:17;1.33;;;1.00;;
12214;SDS011;6170;42.206;24.142;2022-09-20T14:44:48;2.22;;;1.17;;
12214;SDS011;6170;42.206;24.142;2022-09-20T14:47:23;3.38;;;1.27;;
12214;SDS011;6170;42.206;24.142;2022-09-20T14:49:51;2.38;;;1.20;;
12214;SDS011;6170;42.206;24.142;2022-09-20T14:52:35;4.38;;;1.30;;
12214;SDS011;6170;42.206;24.142;2022-09-20T14:55:20;3.03;;;1.77;;
12214;SDS011;6170;42.206;24.142;2022-09-20T14:57:56;5.80;;;1.52;;
12214;SDS011;6170;42.206;24.142;2022-09-20T15:00:24;6.22;;;1.45;;
12214;SDS011;6170;42.206;24.142;2022-09-20T15:02:51;1.38;;;0.93;;
12214;SDS011;6170;42.206;24.142;2022-09-20T15:05:20;2.65;;;1.30;;
12214;SDS011;6170;42.206;24.142;2022-09-20T15:07:51;7.43;;;1.60;;
12214;SDS011;6170;42.206;24.142;2022-09-20T15:10:20;4.18;;;1.60;;
12214;SDS011;6170;42.206;24.142;2022-09-20T15:12:47;1.55;;;1.15;;
12214;SDS011;6170;42.206;24.142;2022-09-20T15:15:15;1.55;;;0.90;;
12214;SDS011;6170;42.206;24.142;2022-09-20T15:17:43;1.25;;;1.10;;
12214;SDS011;6170;42.206;24.142;2022-09-20T15:20:12;3.70;;;1.25;;
12214;SDS011;6170;42.206;24.142;2022-09-20T15:22:40;2.78;;;1.45;;
12214;SDS011;6170;42.206;24.142;2022-09-20T15:25:11;3.20;;;1.73;;
12214;SDS011;6170;42.206;24.142;2022-09-20T15:27:41;6.72;;;1.55;;
12214;SDS011;6170;42.206;24.142;2022-09-20T15:30:11;1.60;;;1.40;;
12214;SDS011;6170;42.206;24.142;2022-09-20T15:32:39;2.25;;;1.30;;
12214;SDS011;6170;42.206;24.142;2022-09-20T15:35:06;5.30;;;2.05;;
12214;SDS011;6170;42.206;24.142;2022-09-20T15:37:34;3.40;;;1.75;;
12214;SDS011;6170;42.206;24.142;2022-09-20T15:40:02;4.25;;;2.35;;
12214;SDS011;6170;42.206;24.142;2022-09-20T15:42:29;4.80;;;2.42;;
12214;SDS011;6170;42.206;24.142;2022-09-20T15:44:57;6.30;;;2.47;;
12214;SDS011;6170;42.206;24.142;2022-09-20T15:47:24;8.18;;;2.38;;
12214;SDS011;6170;42.206;24.142;2022-09-20T15:49:52;6.47;;;2.30;;
12214;SDS011;6170;42.206;24.142;2022-09-20T15:52:19;11.93;;;2.63;;
12214;SDS011;6170;42.206;24.142;2022-09-20T15:54:49;3.33;;;2.10;;
12214;SDS011;6170;42.206;24.142;2022-09-20T15:57:17;11.07;;;2.53;;
12214;SDS011;6170;42.206;24.142;2022-09-20T15:59:44;8.43;;;2.92;;
12214;SDS011;6170;42.206;24.142;2022-09-20T16:02:12;4.05;;;2.72;;
12214;SDS011;6170;42.206;24.142;2022-09-20T16:04:39;9.63;;;2.83;;
12214;SDS011;6170;42.206;24.142;2022-09-20T16:07:06;4.95;;;2.80;;
12214;SDS011;6170;42.206;24.142;2022-09-20T16:09:34;3.13;;;2.33;;
12214;SDS011;6170;42.206;24.142;2022-09-20T16:12:03;5.50;;;2.75;;
12214;SDS011;6170;42.206;24.142;2022-09-20T16:14:30;5.78;;;3.60;;
12214;SDS011;6170;42.206;24.142;2022-09-20T16:16:57;13.18;;;5.30;;
12214;SDS011;6170;42.206;24.142;2022-09-20T16:19:25;17.75;;;4.28;;
12214;SDS011;6170;42.206;24.142;2022-09-20T16:21:52;8.23;;;4.05;;
12214;SDS011;6170;42.206;24.142;2022-09-20T16:24:21;12.52;;;4.70;;
12214;SDS011;6170;42.206;24.142;2022-09-20T16:26:49;12.98;;;5.70;;
12214;SDS011;6170;42.206;24.142;2022-09-20T16:29:16;14.13;;;5.97;;
12214;SDS011;6170;42.206;24.142;2022-09-20T16:31:43;13.65;;;6.22;;
12214;SDS011;6170;42.206;24.142;2022-09-20T16:34:12;11.98;;;5.22;;
12214;SDS011;6170;42.206;24.142;2022-09-20T16:36:44;12.27;;;4.45;;
12214;SDS011;6170;42.206;24.142;2022-09-20T16:39:12;8.25;;;3.42;;
12214;SDS011;6170;42.206;24.142;2022-09-20T16:41:39;8.30;;;3.60;;
12214;SDS011;6170;42.206;24.142;2022-09-20T16:44:07;7.82;;;3.45;;